aviador You're here:

KSGF Decoded Metar

SPRINGFIELD in MO, USA
Report Time2017-11-25 04:52:00
UTC Time2017-11-25 05:26:09
Flight Rules vfr VFR
Wind280° at 07 kt
W.Decomp.*RWY 32: 5.1 kt HW 4.8 kt LCW
RWY 20: 1.6 kt HW 6.8 kt RCW
W.Rank280° ranks 21
Current wind is below 280° avg. (8.7)
Visibility9999 m
Phenomena:N/A
Clouds:N/A
Expected CloudBase > 5,600 ft AGL from Temp-Dew spread
CeilingNone
Temp17°C (ISA +5)
Dew Point03°C (39% RH)
AAT13.0°C
QNH1010 hPa
Density Alt2,021 ft
Elevation1,280 ft
Report Wrong Elevation
Raw Report
KSGF 250452Z 28007KT 10SM CLR 17/03 A2984 RMK AO2 PK WND
33028/0356 SLP097 T01670028=

Extra information for KSGF:More info

Metar Taf Metar & Taf Last 4 Metars F.Rules Stats Wind Profile Meteogram Temp Stats Airport Information Weather charts Add Link Nearby VenuesMetar ALERT Operation Metar Decoded Social comments

AIRNAV info for KSGF